PWSweather.com
Personal Weather Stations
Station Observations
CLBEACH
Clearwater Beach, Clearwater Beach, FL 33767

Clearwater BeachClearwater Beach, FL 33767

Lat: 27.9875932, Lon: -82.82769380000002

Elevation: 100

Station Type: Davis Pro 2 Plus

https://beachresortcondos.com

Latest ConditionsUpdated 3:55:00 AM EDT Thursday, Jul 18, 2019
Currently Today's Max Today's Min Today's Average
Temperature 78.3°F25.7°C 79.7°F26.5°C 77.5°F25.3°C 78.5°F25.8°C
Dew Point 73.7°F23.2°C 75.1°F23.9°C 73.0°F22.8°C 73.9°F23.3°C
Winds 4.6 mph NE7.4 kmh NE 6.9 mph -11.1 kmh - - 3.7 mph 6.0 kmh
Wind Gusts 4.6 mph7.4 kmh 6.9 mph11.1 kmh - -
Humidity 86% 89% 82% 86%
Pressure 30.20 in1022.7 mb 30.24 in1024.0 mb 30.19 in1022.4 mb -
Hour Temp Dew Point Humidity Winds Wind Gusts Pressure Precip Precip Rate Daily Precip Total
03:55 AM 78.3°F25.7°C 73.7°F23.2°C 86% 4.6 mph NE7.4 kmh NE 4.6 mph7.4 kmh 30.20 in1022.7 mb - 0.00 in0.0 mm 0.00 in0.0 mm
03:50 AM 78.6°F25.9°C 73.7°F23.2°C 85% 4.6 mph NNE7.4 kmh NNE 4.6 mph7.4 kmh 30.20 in1022.7 mb - 0.00 in0.0 mm 0.00 in0.0 mm
03:45 AM 78.6°F25.9°C 73.4°F23.0°C 84% 3.5 mph NE5.6 kmh NE 4.6 mph7.4 kmh 30.20 in1022.7 mb - 0.00 in0.0 mm 0.00 in0.0 mm
03:40 AM 78.6°F25.9°C 73.4°F23.0°C 84% 3.5 mph NNE5.6 kmh NNE 4.6 mph7.4 kmh 30.20 in1022.7 mb - 0.00 in0.0 mm 0.00 in0.0 mm
03:35 AM 79.0°F26.1°C 73.7°F23.2°C 84% 4.6 mph NE7.4 kmh NE 4.6 mph7.4 kmh 30.20 in1022.7 mb - 0.00 in0.0 mm 0.00 in0.0 mm
03:30 AM 79.3°F26.3°C 73.7°F23.2°C 83% 4.6 mph NE7.4 kmh NE 4.6 mph7.4 kmh 30.20 in1022.7 mb - 0.00 in0.0 mm 0.00 in0.0 mm
03:25 AM 79.7°F26.5°C 73.7°F23.2°C 82% 4.6 mph NE7.4 kmh NE 4.6 mph7.4 kmh 30.19 in1022.4 mb - 0.00 in0.0 mm 0.00 in0.0 mm
03:20 AM 79.7°F26.5°C 73.7°F23.2°C 82% 4.6 mph E7.4 kmh E 4.6 mph7.4 kmh 30.19 in1022.4 mb - 0.00 in0.0 mm 0.00 in0.0 mm
03:15 AM 79.5°F26.4°C 73.5°F23.1°C 82% 5.8 mph E9.3 kmh E 4.6 mph7.4 kmh 30.19 in1022.4 mb - 0.00 in0.0 mm 0.00 in0.0 mm
03:10 AM 79.7°F26.5°C 73.7°F23.2°C 82% 5.8 mph E9.3 kmh E 6.9 mph11.1 kmh 30.20 in1022.7 mb - 0.00 in0.0 mm 0.00 in0.0 mm
03:00 AM 79.3°F26.3°C 74.1°F23.4°C 84% 3.5 mph ESE5.6 kmh ESE 3.5 mph5.6 kmh 30.20 in1022.7 mb - 0.00 in0.0 mm 0.00 in0.0 mm
02:55 AM 79.2°F26.2°C 73.9°F23.3°C 84% 3.5 mph SE5.6 kmh SE 3.5 mph5.6 kmh 30.20 in1022.7 mb - 0.00 in0.0 mm 0.00 in0.0 mm
02:50 AM 79.0°F26.1°C 74.1°F23.4°C 85% 3.5 mph SE5.6 kmh SE 3.5 mph5.6 kmh 30.20 in1022.7 mb - 0.00 in0.0 mm 0.00 in0.0 mm
02:45 AM 78.6°F25.9°C 74.1°F23.4°C 86% 3.5 mph SE5.6 kmh SE 3.5 mph5.6 kmh 30.20 in1022.7 mb - 0.00 in0.0 mm 0.00 in0.0 mm
02:40 AM 78.4°F25.8°C 74.2°F23.4°C 87% 3.5 mph SSE5.6 kmh SSE 3.5 mph5.6 kmh 30.21 in1023.0 mb - 0.00 in0.0 mm 0.00 in0.0 mm
02:35 AM 78.4°F25.8°C 74.6°F23.7°C 88% 4.6 mph SE7.4 kmh SE 5.8 mph9.3 kmh 30.20 in1022.7 mb - 0.00 in0.0 mm 0.00 in0.0 mm
02:30 AM 78.6°F25.9°C 74.8°F23.8°C 88% 5.8 mph SE9.3 kmh SE 5.8 mph9.3 kmh 30.20 in1022.7 mb - 0.00 in0.0 mm 0.00 in0.0 mm
02:25 AM 78.4°F25.8°C 74.6°F23.7°C 88% 5.8 mph ESE9.3 kmh ESE 5.8 mph9.3 kmh 30.21 in1023.0 mb - 0.00 in0.0 mm 0.00 in0.0 mm
02:20 AM 78.3°F25.7°C 74.7°F23.7°C 89% 4.6 mph SE7.4 kmh SE 4.6 mph7.4 kmh 30.20 in1022.7 mb - 0.00 in0.0 mm 0.00 in0.0 mm
02:15 AM 78.3°F25.7°C 74.7°F23.7°C 89% 3.5 mph ESE5.6 kmh ESE 4.6 mph7.4 kmh 30.20 in1022.7 mb - 0.00 in0.0 mm 0.00 in0.0 mm
02:10 AM 78.3°F25.7°C 74.8°F23.8°C 89% 3.5 mph E5.6 kmh E 3.5 mph5.6 kmh 30.20 in1022.7 mb - 0.00 in0.0 mm 0.00 in0.0 mm
02:00 AM 78.6°F25.9°C 74.8°F23.8°C 88% 5.8 mph E9.3 kmh E 4.6 mph7.4 kmh 30.21 in1023.0 mb - 0.00 in0.0 mm 0.00 in0.0 mm
01:55 AM 78.6°F25.9°C 74.8°F23.8°C 88% 6.9 mph ESE11.1 kmh ESE 6.9 mph11.1 kmh 30.21 in1023.0 mb - 0.00 in0.0 mm 0.00 in0.0 mm
01:50 AM 79.2°F26.2°C 75.0°F23.9°C 87% 5.8 mph E9.3 kmh E 6.9 mph11.1 kmh 30.21 in1023.0 mb - 0.00 in0.0 mm 0.00 in0.0 mm
01:45 AM 79.3°F26.3°C 75.1°F23.9°C 87% 5.8 mph ESE9.3 kmh ESE 5.8 mph9.3 kmh 30.21 in1023.0 mb - 0.00 in0.0 mm 0.00 in0.0 mm
01:40 AM 79.2°F26.2°C 74.6°F23.7°C 86% 3.5 mph ESE5.6 kmh ESE 4.6 mph7.4 kmh 30.21 in1023.0 mb - 0.00 in0.0 mm 0.00 in0.0 mm
01:35 AM 79.0°F26.1°C 74.1°F23.4°C 85% 3.5 mph E5.6 kmh E 3.5 mph5.6 kmh 30.21 in1023.0 mb - 0.00 in0.0 mm 0.00 in0.0 mm
01:30 AM 78.6°F25.9°C 73.7°F23.2°C 85% 3.5 mph N5.6 kmh N 3.5 mph5.6 kmh 30.21 in1023.0 mb - 0.00 in0.0 mm 0.00 in0.0 mm
01:25 AM 78.4°F25.8°C 73.6°F23.1°C 85% 3.5 mph N5.6 kmh N 3.5 mph5.6 kmh 30.21 in1023.0 mb - 0.00 in0.0 mm 0.00 in0.0 mm
01:20 AM 78.3°F25.7°C 73.4°F23.0°C 85% 2.3 mph N3.7 kmh N 3.5 mph5.6 kmh 30.21 in1023.0 mb - 0.00 in0.0 mm 0.00 in0.0 mm
01:15 AM 78.3°F25.7°C 73.4°F23.0°C 85% 1.2 mph N1.9 kmh N 1.2 mph1.9 kmh 30.21 in1023.0 mb - 0.00 in0.0 mm 0.00 in0.0 mm
01:10 AM 78.3°F25.7°C 73.4°F23.0°C 85% Calm Calm -- 30.21 in1023.0 mb - 0.00 in0.0 mm 0.00 in0.0 mm
01:00 AM 78.3°F25.7°C 73.7°F23.2°C 86% 1.2 mph NW1.9 kmh NW 1.2 mph1.9 kmh 30.22 in1023.4 mb - 0.00 in0.0 mm 0.00 in0.0 mm
12:55 AM 77.9°F25.5°C 73.4°F23.0°C 86% 2.3 mph NW3.7 kmh NW 2.3 mph3.7 kmh 30.22 in1023.4 mb - 0.00 in0.0 mm 0.00 in0.0 mm
12:50 AM 77.7°F25.4°C 73.2°F22.9°C 86% 2.3 mph NW3.7 kmh NW 1.2 mph1.9 kmh 30.22 in1023.4 mb - 0.00 in0.0 mm 0.00 in0.0 mm
12:45 AM 77.7°F25.4°C 73.5°F23.1°C 87% 3.5 mph NW5.6 kmh NW 2.3 mph3.7 kmh 30.21 in1023.0 mb - 0.00 in0.0 mm 0.00 in0.0 mm
12:40 AM 77.5°F25.3°C 73.4°F23.0°C 87% 3.5 mph N5.6 kmh N 4.6 mph7.4 kmh 30.21 in1023.0 mb - 0.00 in0.0 mm 0.00 in0.0 mm
12:35 AM 77.7°F25.4°C 73.5°F23.1°C 87% 3.5 mph N5.6 kmh N 4.6 mph7.4 kmh 30.22 in1023.4 mb - 0.00 in0.0 mm 0.00 in0.0 mm
12:30 AM 77.7°F25.4°C 73.5°F23.1°C 87% 3.5 mph 5.6 kmh 4.6 mph7.4 kmh 30.22 in1023.4 mb - 0.00 in0.0 mm 0.00 in0.0 mm
12:25 AM 77.5°F25.3°C 73.4°F23.0°C 87% 2.3 mph N3.7 kmh N 2.3 mph3.7 kmh 30.22 in1023.4 mb - 0.00 in0.0 mm 0.00 in0.0 mm
12:20 AM 77.5°F25.3°C 73.4°F23.0°C 87% 1.2 mph NE1.9 kmh NE 1.2 mph1.9 kmh 30.22 in1023.4 mb - 0.00 in0.0 mm 0.00 in0.0 mm
12:15 AM 77.5°F25.3°C 73.4°F23.0°C 87% 2.3 mph NNE3.7 kmh NNE 2.3 mph3.7 kmh 30.22 in1023.4 mb - 0.00 in0.0 mm 0.00 in0.0 mm
12:10 AM 77.5°F25.3°C 73.0°F22.8°C 86% 3.5 mph 5.6 kmh 3.5 mph5.6 kmh 30.23 in1023.7 mb - 0.00 in0.0 mm 0.00 in0.0 mm
12:00 AM 78.3°F25.7°C 73.4°F23.0°C 85% 2.3 mph N3.7 kmh N 3.5 mph5.6 kmh 30.24 in1024.0 mb - 0.00 in0.0 mm 0.00 in0.0 mm